Hovedside
METAR-TAF:

METAR-TAF

Lufthavner :

Longyearbyen, Norge

Svalbard lufthavn

breddegrad: 78-15N, lengdegrad: 015-28E, høyde over havet: 2 m

Gjeldene værobservasjon

Denne rapporten ble laget for 1 time og 0 minutter siden, klokken 19:50 UTC
Vind 11 kt fra Nord
Temperatur -15°C
Luftfuktighet 71%
Trykk 999 hPa
Sikt 10 km eller mer
Få skyer i en høyde av 1400 ft
Spredte skyer i en høyde av 2200 ft
Brutte skyer i en høyde av 8000 ft
lett snø

METAR: ENSB 261950Z 01007KT 9999 -SN FEW014 SCT022 BKN080 M15/M19 Q0999 WIND 1400FT 01011KT

Tid: 22:50 (20:50 UTC)

Varsel

Varsel gyldig fra 26. klokken 18 UTC til 27. klokken 18 UTC
Vind 12 kt fra Nord-nordøst
Sikt 10 km eller mer
Få skyer i en høyde av 1500 ft
Brutte skyer i en høyde av 4000 ft

TAF: ENSB 2618/2718 03012KT 9999 FEW015 BKN040

Værobservasjoner og værvarsel for over 4000 flyplasser (METAR- og TAF-rapporter).

Tilgjengelige stasjoner er representert av de røde og gule prikkene på kartet.

Hold musepekeren over prikken for å se navnet på stasjonen.

Klikk så for å se værobservasjoner og -varsler.

For å forandre kartet kan du klikke på den grønne knappen med svart kryss for å zoome inn, på den grønne knappen med strek for å zoome ut, eller på de grønne pilene for å se tilstøtende kart.


METAR-TAF: